Time;durP1;ratioP1;P1;durP2;ratioP2;P2;SDS_P1;SDS_P2;PMS_P1;PMS_P2;Temp;Humidity;BMP_temperature;BMP_pressure;BME280_temperature;BME280_humidity;BME280_pressure;Samples;Min_cycle;Max_cycle;Signal;HPM_P1;HPM_P2
2022/06/04 00:01:46;;;;;;;2.85;1.40;;;;;;;;;;5001045;28;20038;-78
2022/06/04 00:04:12;;;;;;;2.15;1.05;;;;;;;;;;5010649;28;20034;-78
2022/06/04 00:06:37;;;;;;;3.25;1.35;;;;;;;;;;5010626;28;20042;-78
2022/06/04 00:09:06;;;;;;;1.90;1.52;;;;;;;;;;5010370;28;20042;-78
2022/06/04 00:17:01;;;;;;;1.60;1.10;;;;;;;;;;5010613;28;20034;-78
2022/06/04 00:19:26;;;;;;;2.03;0.98;;;;;;;;;;5010068;28;20038;-78
2022/06/04 00:21:52;;;;;;;1.52;0.85;;;;;;;;;;5010652;28;20435;-78
2022/06/04 00:24:17;;;;;;;2.00;0.93;;;;;;;;;;5010867;28;20068;-78
2022/06/04 00:26:42;;;;;;;2.25;1.05;;;;;;;;;;5013701;28;20060;-78
2022/06/04 00:29:12;;;;;;;2.65;1.00;;;;;;;;;;5013775;28;20041;-78
2022/06/04 00:31:38;;;;;;;1.90;0.93;;;;;;;;;;4997770;28;20071;-78
2022/06/04 00:34:04;;;;;;;2.20;1.30;;;;;;;;;;5013453;28;20029;-78
2022/06/04 00:36:31;;;;;;;4.68;1.30;;;;;;;;;;5013503;28;20044;-78
2022/06/04 00:38:57;;;;;;;2.72;1.02;;;;;;;;;;5013788;28;20030;-78
2022/06/04 00:41:36;;;;;;;2.05;1.23;;;;;;;;;;5013702;28;20041;-78
2022/06/04 00:44:30;;;;;;;11.48;1.58;;;;;;;;;;5013894;28;20102;-77
2022/06/04 00:47:09;;;;;;;2.03;1.42;;;;;;;;;;5030886;28;20029;-77
2022/06/04 00:49:34;;;;;;;2.55;0.95;;;;;;;;;;5018228;28;20033;-77
2022/06/04 00:52:00;;;;;;;1.40;0.80;;;;;;;;;;5016683;28;20041;-77
2022/06/04 00:54:26;;;;;;;1.90;0.95;;;;;;;;;;5017399;28;20106;-78
2022/06/04 00:57:16;;;;;;;1.70;1.23;;;;;;;;;;5013569;28;20030;-78
2022/06/04 01:00:11;;;;;;;2.05;1.10;;;;;;;;;;5014240;28;20038;-78
2022/06/04 01:02:42;;;;;;;2.85;0.85;;;;;;;;;;5032258;28;20029;-78
2022/06/04 01:05:36;;;;;;;2.28;1.05;;;;;;;;;;5033385;28;20083;-78
2022/06/04 01:08:07;;;;;;;1.30;0.93;;;;;;;;;;5019068;28;20045;-78
2022/06/04 01:10:55;;;;;;;1.70;1.03;;;;;;;;;;5034732;28;20116;-78
2022/06/04 01:13:30;;;;;;;2.70;1.00;;;;;;;;;;5017485;28;20039;-78
2022/06/04 01:16:04;;;;;;;1.77;1.00;;;;;;;;;;5034667;28;20033;-78
2022/06/04 01:18:35;;;;;;;1.48;0.93;;;;;;;;;;5034029;28;20033;-78
2022/06/04 01:21:35;;;;;;;2.70;1.10;;;;;;;;;;5032974;28;20041;-78
2022/06/04 01:24:10;;;;;;;1.27;0.90;;;;;;;;;;5016428;28;20057;-78
2022/06/04 01:26:56;;;;;;;2.67;1.05;;;;;;;;;;5024819;28;20033;-78
2022/06/04 01:29:31;;;;;;;1.85;0.90;;;;;;;;;;5013112;28;20049;-77
2022/06/04 01:32:23;;;;;;;1.20;0.98;;;;;;;;;;5013317;28;20042;-78
2022/06/04 01:35:19;;;;;;;1.52;0.93;;;;;;;;;;4997312;28;20139;-78
2022/06/04 01:37:56;;;;;;;1.55;0.85;;;;;;;;;;5008505;28;20137;-78
2022/06/04 01:43:09;;;;;;;2.92;1.08;;;;;;;;;;4998838;28;20042;-78
2022/06/04 01:45:34;;;;;;;1.88;0.95;;;;;;;;;;4979981;28;20475;-78
2022/06/04 01:48:01;;;;;;;2.35;1.23;;;;;;;;;;4996584;28;20108;-78
2022/06/04 01:50:29;;;;;;;2.53;1.38;;;;;;;;;;5003617;28;20418;-78
2022/06/04 01:52:55;;;;;;;2.50;0.90;;;;;;;;;;5036074;28;20518;-78
2022/06/04 01:55:24;;;;;;;2.45;1.10;;;;;;;;;;5035953;28;20116;-78
2022/06/04 01:58:00;;;;;;;1.67;1.15;;;;;;;;;;5015516;28;20034;-78
2022/06/04 02:00:56;;;;;;;2.05;1.05;;;;;;;;;;5031951;28;20060;-78
2022/06/04 02:03:35;;;;;;;1.83;1.10;;;;;;;;;;5003813;28;20052;-78
2022/06/04 02:06:07;;;;;;;2.60;1.17;;;;;;;;;;5012757;28;20095;-78
2022/06/04 02:08:38;;;;;;;2.10;1.00;;;;;;;;;;4996652;28;20045;-78
2022/06/04 02:11:08;;;;;;;2.03;1.20;;;;;;;;;;4980599;28;20116;-78
2022/06/04 02:13:34;;;;;;;1.73;0.90;;;;;;;;;;4995778;28;20656;-78
2022/06/04 02:16:08;;;;;;;2.13;0.85;;;;;;;;;;4980339;28;20100;-78
2022/06/04 02:18:34;;;;;;;1.00;0.70;;;;;;;;;;4979508;28;20121;-78
2022/06/04 02:21:01;;;;;;;1.00;0.70;;;;;;;;;;4995549;28;20034;-78
2022/06/04 02:23:29;;;;;;;1.88;0.90;;;;;;;;;;4995920;28;20030;-78
2022/06/04 02:25:54;;;;;;;1.55;1.00;;;;;;;;;;4999114;28;20038;-78
2022/06/04 02:28:20;;;;;;;2.08;1.17;;;;;;;;;;5014795;28;20041;-78
2022/06/04 02:30:48;;;;;;;1.27;0.80;;;;;;;;;;5015379;28;20044;-78
2022/06/04 02:33:37;;;;;;;1.30;0.80;;;;;;;;;;5031508;28;20419;-78
2022/06/04 02:36:08;;;;;;;2.33;1.27;;;;;;;;;;5031619;28;20083;-78
2022/06/04 02:39:19;;;;;;;2.13;1.08;;;;;;;;;;5015496;28;20106;-78
2022/06/04 02:42:07;;;;;;;3.05;1.08;;;;;;;;;;5013369;28;20160;-78
2022/06/04 02:44:35;;;;;;;1.77;1.00;;;;;;;;;;5014511;28;20583;-78
2022/06/04 02:47:21;;;;;;;1.08;0.82;;;;;;;;;;5014805;28;20049;-77
2022/06/04 02:50:20;;;;;;;1.75;0.93;;;;;;;;;;5014889;28;20141;-78
2022/06/04 02:52:45;;;;;;;1.65;0.95;;;;;;;;;;5017493;28;20111;-78
2022/06/04 02:55:14;;;;;;;1.63;1.02;;;;;;;;;;5014763;28;20033;-78
2022/06/04 02:57:42;;;;;;;2.03;1.13;;;;;;;;;;5011532;28;20033;-78
2022/06/04 03:00:08;;;;;;;2.38;0.80;;;;;;;;;;4979273;28;20037;-78
2022/06/04 03:02:34;;;;;;;1.38;1.00;;;;;;;;;;4992415;28;20045;-78
2022/06/04 03:05:06;;;;;;;2.13;1.13;;;;;;;;;;5011218;28;20030;-78
2022/06/04 03:07:32;;;;;;;3.33;1.15;;;;;;;;;;4994696;28;20041;-77
2022/06/04 03:10:00;;;;;;;0.93;0.65;;;;;;;;;;5010602;28;20412;-78
2022/06/04 03:12:25;;;;;;;1.25;0.90;;;;;;;;;;5010926;28;20037;-78
2022/06/04 03:14:51;;;;;;;1.67;0.70;;;;;;;;;;5011027;28;20034;-78
2022/06/04 03:17:16;;;;;;;2.25;1.05;;;;;;;;;;4994848;28;20034;-78
2022/06/04 03:19:42;;;;;;;2.20;0.80;;;;;;;;;;5010806;28;20037;-78
2022/06/04 03:22:07;;;;;;;2.28;1.00;;;;;;;;;;5010798;28;20104;-78
2022/06/04 03:24:32;;;;;;;2.20;1.00;;;;;;;;;;5010735;28;20092;-78
2022/06/04 03:26:58;;;;;;;1.60;1.00;;;;;;;;;;5014274;28;20411;-78
2022/06/04 03:29:23;;;;;;;1.52;0.98;;;;;;;;;;5014514;28;20514;-78
2022/06/04 03:31:49;;;;;;;2.85;1.05;;;;;;;;;;5014028;28;20044;-77
2022/06/04 03:34:14;;;;;;;1.70;0.80;;;;;;;;;;5014288;28;20029;-78
2022/06/04 03:36:40;;;;;;;1.85;0.98;;;;;;;;;;5014219;28;20451;-78
2022/06/04 03:39:05;;;;;;;1.83;1.00;;;;;;;;;;5013706;28;20041;-78
2022/06/04 03:41:31;;;;;;;3.17;1.30;;;;;;;;;;5014238;28;20087;-78
2022/06/04 03:43:56;;;;;;;1.90;1.00;;;;;;;;;;5014189;28;20037;-78
2022/06/04 03:46:24;;;;;;;2.97;1.17;;;;;;;;;;5030734;28;20114;-78
2022/06/04 03:48:51;;;;;;;2.25;1.17;;;;;;;;;;5014345;28;20037;-77
2022/06/04 03:51:16;;;;;;;1.70;1.15;;;;;;;;;;5014046;28;20103;-78
2022/06/04 03:53:42;;;;;;;1.85;0.93;;;;;;;;;;5014236;28;20108;-78
2022/06/04 03:56:07;;;;;;;1.33;0.80;;;;;;;;;;5010680;28;20036;-78
2022/06/04 03:58:33;;;;;;;1.98;1.17;;;;;;;;;;4994133;28;20048;-78
2022/06/04 04:00:58;;;;;;;2.13;1.00;;;;;;;;;;4994539;28;20045;-77
2022/06/04 04:03:24;;;;;;;1.75;0.80;;;;;;;;;;5010349;28;20041;-78
2022/06/04 04:05:51;;;;;;;1.20;0.90;;;;;;;;;;5010548;28;20073;-77
2022/06/04 04:08:17;;;;;;;2.05;1.25;;;;;;;;;;5009951;28;20089;-78
2022/06/04 04:10:43;;;;;;;2.17;0.90;;;;;;;;;;5010809;28;20447;-78
2022/06/04 04:13:08;;;;;;;1.65;1.00;;;;;;;;;;5010457;28;20034;-77
2022/06/04 04:15:34;;;;;;;1.67;1.02;;;;;;;;;;5010451;28;20061;-77
2022/06/04 04:17:59;;;;;;;1.85;0.90;;;;;;;;;;5009968;28;20042;-77
2022/06/04 04:20:27;;;;;;;1.80;0.90;;;;;;;;;;5010530;28;20034;-77
2022/06/04 04:22:53;;;;;;;2.05;0.93;;;;;;;;;;5012329;28;20577;-77
2022/06/04 04:25:21;;;;;;;1.65;0.95;;;;;;;;;;5014285;28;20038;-77
2022/06/04 04:27:47;;;;;;;2.17;1.10;;;;;;;;;;5017243;28;20565;-77
2022/06/04 04:30:14;;;;;;;2.03;0.95;;;;;;;;;;5017470;28;20049;-77
2022/06/04 04:32:40;;;;;;;2.05;0.90;;;;;;;;;;5033855;28;20471;-77
2022/06/04 04:35:08;;;;;;;1.83;1.10;;;;;;;;;;5017724;28;20029;-77
2022/06/04 04:37:33;;;;;;;1.85;0.70;;;;;;;;;;5016870;28;20045;-77
2022/06/04 04:39:58;;;;;;;2.13;0.93;;;;;;;;;;5017395;28;20049;-77
2022/06/04 04:42:24;;;;;;;1.75;0.70;;;;;;;;;;5017602;28;20109;-77
2022/06/04 04:44:49;;;;;;;1.75;0.77;;;;;;;;;;5017234;28;20040;-77
2022/06/04 04:47:15;;;;;;;1.27;0.77;;;;;;;;;;5017143;28;20045;-78
2022/06/04 04:49:40;;;;;;;1.88;0.80;;;;;;;;;;5016961;28;20099;-79
2022/06/04 04:52:06;;;;;;;1.40;0.80;;;;;;;;;;5016553;28;20041;-76
2022/06/04 04:54:32;;;;;;;1.85;1.00;;;;;;;;;;5000796;28;20404;-77
2022/06/04 04:56:57;;;;;;;1.92;1.08;;;;;;;;;;5013870;28;20079;-77
2022/06/04 04:59:23;;;;;;;2.13;0.90;;;;;;;;;;4996873;28;20049;-77
2022/06/04 05:01:48;;;;;;;1.40;0.93;;;;;;;;;;5004470;28;20412;-77
2022/06/04 05:04:13;;;;;;;1.48;0.77;;;;;;;;;;5013372;28;20037;-77
2022/06/04 05:06:39;;;;;;;2.33;0.80;;;;;;;;;;5013431;28;20034;-77
2022/06/04 05:09:04;;;;;;;1.30;0.90;;;;;;;;;;5013211;28;20038;-77
2022/06/04 05:11:31;;;;;;;1.50;0.95;;;;;;;;;;5013373;28;20037;-79
2022/06/04 05:13:57;;;;;;;1.25;0.80;;;;;;;;;;5013835;28;20038;-78
2022/06/04 05:16:27;;;;;;;1.55;0.70;;;;;;;;;;5013824;28;20526;-78
2022/06/04 05:18:52;;;;;;;2.13;0.85;;;;;;;;;;5013158;28;20034;-78
2022/06/04 05:21:39;;;;;;;2.22;0.75;;;;;;;;;;5012792;28;20042;-78
2022/06/04 05:24:05;;;;;;;1.55;0.80;;;;;;;;;;5013330;28;20036;-77
2022/06/04 05:26:30;;;;;;;1.33;0.65;;;;;;;;;;5016756;28;20026;-77
2022/06/04 05:28:56;;;;;;;1.70;0.70;;;;;;;;;;5016576;28;20030;-78
2022/06/04 05:31:21;;;;;;;1.30;0.60;;;;;;;;;;5032775;28;20041;-78
2022/06/04 05:33:47;;;;;;;1.88;0.90;;;;;;;;;;5015184;28;20488;-77
2022/06/04 05:36:12;;;;;;;1.45;0.70;;;;;;;;;;5015836;28;20037;-77
2022/06/04 05:38:38;;;;;;;1.70;1.40;;;;;;;;;;4999716;28;20083;-77
2022/06/04 05:41:05;;;;;;;1.40;0.68;;;;;;;;;;5016268;28;20037;-77
2022/06/04 05:43:31;;;;;;;1.00;0.60;;;;;;;;;;5016146;28;20555;-77
2022/06/04 05:45:57;;;;;;;2.58;0.95;;;;;;;;;;5015901;28;20056;-77
2022/06/04 05:48:23;;;;;;;1.08;0.68;;;;;;;;;;4999545;28;20034;-77
2022/06/04 05:50:49;;;;;;;1.48;0.70;;;;;;;;;;5015680;28;20049;-77
2022/06/04 05:53:15;;;;;;;2.53;0.88;;;;;;;;;;5015569;28;20029;-78
2022/06/04 05:55:40;;;;;;;1.85;0.88;;;;;;;;;;5015686;28;20408;-77
2022/06/04 05:58:05;;;;;;;0.85;0.60;;;;;;;;;;5015718;28;20032;-78
2022/06/04 06:00:31;;;;;;;2.47;0.85;;;;;;;;;;4999541;28;20488;-78
2022/06/04 06:02:56;;;;;;;2.28;0.98;;;;;;;;;;5015627;28;20029;-78
2022/06/04 06:05:22;;;;;;;1.33;0.60;;;;;;;;;;5032309;28;20040;-78
2022/06/04 06:07:48;;;;;;;1.67;0.90;;;;;;;;;;5015517;28;20042;-77
2022/06/04 06:10:13;;;;;;;1.23;0.75;;;;;;;;;;5015980;28;20469;-78
2022/06/04 06:12:38;;;;;;;2.50;1.00;;;;;;;;;;5015437;28;20049;-78
2022/06/04 06:15:05;;;;;;;1.95;1.05;;;;;;;;;;5015753;28;20044;-77
2022/06/04 06:17:30;;;;;;;2.65;1.10;;;;;;;;;;5015338;28;20116;-78
2022/06/04 06:19:55;;;;;;;1.70;0.63;;;;;;;;;;5015219;28;20033;-77
2022/06/04 06:22:21;;;;;;;1.73;0.80;;;;;;;;;;5015329;28;20037;-78
2022/06/04 06:24:47;;;;;;;1.40;0.70;;;;;;;;;;5015465;28;20044;-78
2022/06/04 06:27:12;;;;;;;1.40;0.50;;;;;;;;;;5002040;28;20046;-77
2022/06/04 06:29:38;;;;;;;1.48;0.77;;;;;;;;;;4995585;28;20046;-77
2022/06/04 06:32:04;;;;;;;2.17;0.90;;;;;;;;;;4995528;28;20045;-78
2022/06/04 06:34:30;;;;;;;2.58;0.82;;;;;;;;;;4995751;28;20034;-77
2022/06/04 06:36:56;;;;;;;1.83;0.77;;;;;;;;;;4995499;28;20161;-78
2022/06/04 06:39:22;;;;;;;1.55;0.82;;;;;;;;;;4995600;28;20046;-77
2022/06/04 06:41:47;;;;;;;2.08;0.80;;;;;;;;;;4995411;28;20622;-77
2022/06/04 06:44:13;;;;;;;1.20;0.85;;;;;;;;;;5011556;28;20037;-78
2022/06/04 06:46:40;;;;;;;2.55;0.88;;;;;;;;;;4979037;28;20033;-78
2022/06/04 06:49:14;;;;;;;2.28;0.90;;;;;;;;;;4995886;28;20030;-77
2022/06/04 06:51:41;;;;;;;2.03;1.20;;;;;;;;;;5034609;28;20036;-77
2022/06/04 06:54:08;;;;;;;1.80;0.95;;;;;;;;;;5035021;28;20044;-77
2022/06/04 06:56:35;;;;;;;2.10;0.85;;;;;;;;;;5021207;28;20128;-77
2022/06/04 06:59:01;;;;;;;2.97;0.88;;;;;;;;;;4994940;28;20034;-77
2022/06/04 07:01:27;;;;;;;1.88;0.80;;;;;;;;;;4983370;28;20033;-77
2022/06/04 07:03:53;;;;;;;6.75;1.23;;;;;;;;;;5010976;28;20033;-77
2022/06/04 07:06:32;;;;;;;3.35;1.20;;;;;;;;;;5011301;28;20040;-77
2022/06/04 07:08:57;;;;;;;1.80;0.90;;;;;;;;;;4995208;28;20037;-77
2022/06/04 07:11:23;;;;;;;2.55;1.05;;;;;;;;;;5011443;28;20121;-78
2022/06/04 07:13:48;;;;;;;2.50;0.77;;;;;;;;;;5011533;28;20030;-78
2022/06/04 07:16:14;;;;;;;1.65;0.73;;;;;;;;;;4994917;28;20053;-78
2022/06/04 07:18:39;;;;;;;1.35;0.80;;;;;;;;;;5010943;28;20100;-78
2022/06/04 07:21:05;;;;;;;1.60;0.82;;;;;;;;;;5010973;28;20117;-78
2022/06/04 07:23:34;;;;;;;1.20;0.77;;;;;;;;;;5011105;28;20036;-77
2022/06/04 07:26:00;;;;;;;1.02;0.68;;;;;;;;;;4998399;28;20100;-78
2022/06/04 07:28:26;;;;;;;2.10;0.93;;;;;;;;;;4997902;28;20033;-77
2022/06/04 07:30:51;;;;;;;1.55;0.85;;;;;;;;;;5030375;28;20492;-77
2022/06/04 07:33:16;;;;;;;1.63;0.85;;;;;;;;;;4998027;28;20083;-77
2022/06/04 07:35:49;;;;;;;2.30;0.70;;;;;;;;;;5014020;28;20071;-77
2022/06/04 07:38:14;;;;;;;1.48;1.02;;;;;;;;;;5013769;28;20586;-77
2022/06/04 07:40:40;;;;;;;1.27;0.82;;;;;;;;;;5014365;28;20184;-77
2022/06/04 07:43:05;;;;;;;2.92;0.93;;;;;;;;;;5013993;28;20025;-77
2022/06/04 07:45:31;;;;;;;1.42;0.70;;;;;;;;;;5013927;28;20042;-77
2022/06/04 07:47:56;;;;;;;1.77;0.90;;;;;;;;;;5013394;28;20404;-77
2022/06/04 07:50:22;;;;;;;1.45;0.90;;;;;;;;;;5013965;28;20492;-77
2022/06/04 07:52:47;;;;;;;1.73;0.93;;;;;;;;;;4997381;28;20040;-77
2022/06/04 07:55:13;;;;;;;3.28;1.15;;;;;;;;;;5014015;28;20535;-77
2022/06/04 07:57:38;;;;;;;2.08;1.00;;;;;;;;;;5009833;28;20126;-77
2022/06/04 08:00:05;;;;;;;1.73;1.02;;;;;;;;;;4994340;28;20050;-77
2022/06/04 08:02:31;;;;;;;1.27;0.85;;;;;;;;;;4994556;28;20060;-77
2022/06/04 08:04:56;;;;;;;2.20;0.90;;;;;;;;;;5014120;28;20475;-77
2022/06/04 08:07:22;;;;;;;1.77;0.98;;;;;;;;;;5013609;28;20037;-77
2022/06/04 08:09:48;;;;;;;2.47;0.80;;;;;;;;;;5014098;28;20060;-77
2022/06/04 08:12:14;;;;;;;1.58;0.90;;;;;;;;;;5013991;28;20073;-77
2022/06/04 08:14:40;;;;;;;1.75;0.82;;;;;;;;;;5013743;28;20511;-77
2022/06/04 08:17:05;;;;;;;2.08;0.80;;;;;;;;;;5013763;28;20029;-77
2022/06/04 08:19:32;;;;;;;1.70;1.20;;;;;;;;;;5013636;28;20480;-77
2022/06/04 08:21:58;;;;;;;1.83;1.20;;;;;;;;;;5013927;28;20116;-77
2022/06/04 08:24:24;;;;;;;1.80;0.77;;;;;;;;;;5013846;28;20057;-77
2022/06/04 08:26:53;;;;;;;2.35;0.93;;;;;;;;;;5013805;28;20040;-77
2022/06/04 08:29:19;;;;;;;1.98;1.00;;;;;;;;;;5014214;28;20060;-77
2022/06/04 08:31:45;;;;;;;1.67;0.95;;;;;;;;;;5013750;28;20133;-77
2022/06/04 08:34:10;;;;;;;2.55;1.20;;;;;;;;;;5013827;28;20466;-77
2022/06/04 08:36:36;;;;;;;1.85;1.00;;;;;;;;;;5013574;28;20033;-77
2022/06/04 08:39:02;;;;;;;2.58;0.93;;;;;;;;;;5013400;28;20038;-77
2022/06/04 08:41:39;;;;;;;1.75;1.10;;;;;;;;;;5013867;28;20026;-77
2022/06/04 08:44:09;;;;;;;1.98;1.02;;;;;;;;;;5030553;28;20380;-77
2022/06/04 08:46:39;;;;;;;2.90;1.15;;;;;;;;;;5013446;28;20048;-77
2022/06/04 08:49:11;;;;;;;2.63;1.20;;;;;;;;;;5013661;28;20044;-77
2022/06/04 08:51:36;;;;;;;2.35;1.10;;;;;;;;;;5013943;28;20029;-77
2022/06/04 08:57:32;;;;;;;1.75;0.90;;;;;;;;;;5014055;28;20121;-77
2022/06/04 08:59:44;;;;;;;3.83;1.10;;;;;;;;;;5009737;28;20030;-78
2022/06/04 09:02:13;;;;;;;3.35;1.38;;;;;;;;;;5023651;28;20419;-77
2022/06/04 09:05:22;;;;;;;2.97;0.80;;;;;;;;;;5013750;28;20049;-78
2022/06/04 09:07:49;;;;;;;2.00;1.00;;;;;;;;;;5028510;28;20110;-78
2022/06/04 09:10:25;;;;;;;3.40;1.40;;;;;;;;;;5000062;28;20149;-77
2022/06/04 09:12:58;;;;;;;3.13;1.20;;;;;;;;;;5016949;28;20112;-77
2022/06/04 09:15:29;;;;;;;2.28;1.15;;;;;;;;;;5017520;28;20183;-77
2022/06/04 09:17:56;;;;;;;2.50;1.30;;;;;;;;;;5033441;28;20046;-77
2022/06/04 09:20:40;;;;;;;2.45;1.30;;;;;;;;;;5017063;28;20057;-77
2022/06/04 09:23:09;;;;;;;2.47;1.30;;;;;;;;;;5000638;28;20502;-77
2022/06/04 09:25:46;;;;;;;3.42;1.15;;;;;;;;;;5017068;28;20044;-77
2022/06/04 09:28:50;;;;;;;2.08;1.10;;;;;;;;;;5012930;28;20481;-78
2022/06/04 09:31:37;;;;;;;2.35;1.30;;;;;;;;;;5015635;28;20065;-78
2022/06/04 09:34:19;;;;;;;2.55;1.08;;;;;;;;;;5014316;28;20428;-78
2022/06/04 09:36:46;;;;;;;3.58;1.27;;;;;;;;;;5012960;28;20103;-77
2022/06/04 09:39:20;;;;;;;2.75;1.27;;;;;;;;;;4996879;28;20046;-77
2022/06/04 09:41:58;;;;;;;1.48;1.02;;;;;;;;;;4996439;28;20033;-78
2022/06/04 09:44:24;;;;;;;2.13;1.27;;;;;;;;;;4997719;28;20057;-77
2022/06/04 09:47:15;;;;;;;3.15;1.40;;;;;;;;;;4996681;28;20030;-77
2022/06/04 09:49:42;;;;;;;3.13;1.40;;;;;;;;;;5023593;28;20043;-77
2022/06/04 09:52:11;;;;;;;1.42;0.90;;;;;;;;;;5019790;28;20025;-77
2022/06/04 09:54:36;;;;;;;2.15;1.02;;;;;;;;;;5052559;28;20067;-77
2022/06/04 09:57:04;;;;;;;2.97;1.10;;;;;;;;;;5018046;28;20104;-77
2022/06/04 09:59:32;;;;;;;2.92;1.15;;;;;;;;;;4996540;28;20096;-77
2022/06/04 10:02:00;;;;;;;2.92;1.33;;;;;;;;;;5004849;28;20061;-77
2022/06/04 10:04:46;;;;;;;3.33;1.73;;;;;;;;;;5012583;28;20040;-77
2022/06/04 10:07:13;;;;;;;1.88;1.20;;;;;;;;;;5012351;28;20034;-77
2022/06/04 10:09:56;;;;;;;2.42;1.23;;;;;;;;;;5012861;28;20045;-78
2022/06/04 10:15:39;;;;;;;2.50;1.23;;;;;;;;;;5012532;28;20041;-78
2022/06/04 10:18:29;;;;;;;3.25;1.52;;;;;;;;;;5028390;28;20045;-77
2022/06/04 10:21:00;;;;;;;2.47;1.15;;;;;;;;;;5012081;28;20409;-77
2022/06/04 10:23:27;;;;;;;2.55;1.10;;;;;;;;;;5012007;28;20516;-77
2022/06/04 10:26:15;;;;;;;2.45;1.23;;;;;;;;;;4997536;28;20538;-77
2022/06/04 10:28:51;;;;;;;3.92;1.38;;;;;;;;;;5018070;28;20041;-77
2022/06/04 10:31:59;;;;;;;4.72;1.48;;;;;;;;;;5031864;28;20076;-77
2022/06/04 10:34:34;;;;;;;2.08;1.20;;;;;;;;;;5002696;28;20038;-78
2022/06/04 10:37:21;;;;;;;4.03;1.50;;;;;;;;;;5031631;28;20527;-77
2022/06/04 10:40:11;;;;;;;2.53;1.10;;;;;;;;;;5032376;28;20053;-77
2022/06/04 10:42:54;;;;;;;2.13;1.33;;;;;;;;;;5031282;28;20037;-77
2022/06/04 10:45:27;;;;;;;2.10;1.20;;;;;;;;;;5016848;28;20042;-78
2022/06/04 10:48:00;;;;;;;2.83;1.00;;;;;;;;;;5015443;28;20408;-77
2022/06/04 10:54:04;;;;;;;1.95;1.05;;;;;;;;;;5031400;28;20045;-77
2022/06/04 10:56:41;;;;;;;2.20;1.17;;;;;;;;;;5011575;28;20034;-78
2022/06/04 10:59:22;;;;;;;2.88;1.10;;;;;;;;;;4995042;28;20039;-78
2022/06/04 11:02:06;;;;;;;2.08;1.27;;;;;;;;;;5021814;28;20045;-78
2022/06/04 11:04:44;;;;;;;3.20;1.45;;;;;;;;;;5031025;28;20030;-78
2022/06/04 11:07:12;;;;;;;3.03;1.20;;;;;;;;;;5014705;28;20079;-78
2022/06/04 11:09:39;;;;;;;2.65;1.30;;;;;;;;;;5030430;28;20423;-78
2022/06/04 11:12:16;;;;;;;2.00;1.30;;;;;;;;;;4998213;28;20127;-78
2022/06/04 11:14:46;;;;;;;2.47;1.23;;;;;;;;;;5015591;28;20044;-78
2022/06/04 11:17:41;;;;;;;2.40;1.30;;;;;;;;;;5014976;28;20067;-78
2022/06/04 11:20:11;;;;;;;3.20;1.40;;;;;;;;;;5014375;28;20041;-78
2022/06/04 11:22:40;;;;;;;1.50;1.15;;;;;;;;;;5013801;28;20507;-78
2022/06/04 11:25:28;;;;;;;2.15;1.23;;;;;;;;;;4998105;28;20570;-78
2022/06/04 11:27:59;;;;;;;3.08;1.42;;;;;;;;;;5011787;28;20034;-78
2022/06/04 11:31:02;;;;;;;1.67;1.23;;;;;;;;;;4994794;28;20512;-78
2022/06/04 11:33:52;;;;;;;2.35;1.42;;;;;;;;;;4997375;28;20049;-78
2022/06/04 11:36:42;;;;;;;1.83;1.20;;;;;;;;;;5011044;28;20034;-78
2022/06/04 11:39:38;;;;;;;1.88;1.20;;;;;;;;;;5011958;28;20052;-78
2022/06/04 11:42:14;;;;;;;1.83;1.23;;;;;;;;;;5012288;28;20044;-78
2022/06/04 11:44:55;;;;;;;2.67;1.77;;;;;;;;;;4995151;28;20625;-78
2022/06/04 11:47:20;;;;;;;2.30;1.40;;;;;;;;;;5010638;28;21726;-78
2022/06/04 11:50:15;;;;;;;3.00;1.58;;;;;;;;;;5023639;28;20491;-78
2022/06/04 11:52:59;;;;;;;2.72;1.48;;;;;;;;;;5053816;28;20247;-79
2022/06/04 11:55:54;;;;;;;2.47;1.50;;;;;;;;;;5018277;28;20075;-79
2022/06/04 11:58:39;;;;;;;2.63;1.52;;;;;;;;;;5046982;28;20044;-79
2022/06/04 12:01:08;;;;;;;3.53;1.65;;;;;;;;;;5010913;28;20033;-79
2022/06/04 12:03:40;;;;;;;2.88;1.40;;;;;;;;;;4994642;28;20451;-79
2022/06/04 12:06:08;;;;;;;2.28;1.25;;;;;;;;;;4994665;28;20168;-79
2022/06/04 12:08:37;;;;;;;1.83;1.23;;;;;;;;;;5010275;28;20076;-79
2022/06/04 12:11:12;;;;;;;2.58;1.50;;;;;;;;;;5011006;28;20432;-79
2022/06/04 12:13:56;;;;;;;3.40;1.30;;;;;;;;;;4994532;28;20042;-79
2022/06/04 12:16:34;;;;;;;2.63;1.35;;;;;;;;;;5010294;28;20512;-80
2022/06/04 12:19:02;;;;;;;2.33;1.52;;;;;;;;;;5010389;28;20038;-79
2022/06/04 12:24:23;;;;;;;2.63;1.63;;;;;;;;;;5010257;28;20516;-79
2022/06/04 12:26:48;;;;;;;1.90;1.30;;;;;;;;;;5016541;28;20116;-78
2022/06/04 12:29:29;;;;;;;2.20;1.20;;;;;;;;;;5010507;28;20448;-79
2022/06/04 12:32:03;;;;;;;3.30;1.45;;;;;;;;;;5012006;28;20042;-79
2022/06/04 12:34:39;;;;;;;3.17;1.65;;;;;;;;;;5010771;28;20108;-78
2022/06/04 12:37:05;;;;;;;3.63;1.50;;;;;;;;;;4993536;28;20415;-79
2022/06/04 12:39:38;;;;;;;2.90;1.88;;;;;;;;;;5010238;28;20104;-79
2022/06/04 12:42:33;;;;;;;3.33;1.85;;;;;;;;;;5010527;28;20087;-79
2022/06/04 12:45:01;;;;;;;3.28;1.85;;;;;;;;;;4997264;28;20531;-77
2022/06/04 12:47:34;;;;;;;2.78;1.55;;;;;;;;;;5013959;28;20038;-78
2022/06/04 12:50:02;;;;;;;2.80;1.77;;;;;;;;;;5025042;28;20090;-78
2022/06/04 12:52:29;;;;;;;3.50;1.95;;;;;;;;;;5020339;28;20055;-78
2022/06/04 12:55:20;;;;;;;3.08;1.50;;;;;;;;;;5053759;28;20037;-78
2022/06/04 12:57:50;;;;;;;2.55;1.48;;;;;;;;;;5013461;28;20087;-78
2022/06/04 13:00:18;;;;;;;2.58;1.85;;;;;;;;;;4997561;28;20072;-78
2022/06/04 13:03:07;;;;;;;3.30;1.75;;;;;;;;;;5048686;28;20048;-78
2022/06/04 13:05:34;;;;;;;2.97;2.13;;;;;;;;;;5018064;28;20526;-78
2022/06/04 13:08:19;;;;;;;2.83;1.70;;;;;;;;;;4984246;28;20084;-78
2022/06/04 13:10:49;;;;;;;3.28;1.90;;;;;;;;;;5019111;28;20041;-78
2022/06/04 13:13:41;;;;;;;3.42;1.58;;;;;;;;;;5017445;28;20041;-78
2022/06/04 13:16:31;;;;;;;2.97;1.85;;;;;;;;;;5002816;28;20079;-79
2022/06/04 13:19:07;;;;;;;2.63;1.70;;;;;;;;;;5018582;28;20034;-78
2022/06/04 13:21:32;;;;;;;3.47;1.95;;;;;;;;;;5016886;28;20087;-77
2022/06/04 13:24:04;;;;;;;4.13;2.22;;;;;;;;;;5016547;28;20062;-78
2022/06/04 13:26:39;;;;;;;3.20;2.07;;;;;;;;;;5010178;28;20044;-77
2022/06/04 13:29:22;;;;;;;3.65;1.92;;;;;;;;;;5012988;28;20030;-78
2022/06/04 13:31:55;;;;;;;4.00;2.20;;;;;;;;;;4996701;28;20381;-78
2022/06/04 13:34:26;;;;;;;4.65;2.00;;;;;;;;;;4997390;28;20049;-78
2022/06/04 13:37:02;;;;;;;2.55;1.80;;;;;;;;;;4997564;28;20112;-78
2022/06/04 13:39:28;;;;;;;2.65;1.92;;;;;;;;;;4996738;28;20033;-78
2022/06/04 13:42:01;;;;;;;3.47;1.70;;;;;;;;;;4996712;28;20049;-78
2022/06/04 13:44:30;;;;;;;2.30;1.80;;;;;;;;;;4997424;28;20453;-78
2022/06/04 13:47:06;;;;;;;3.10;1.92;;;;;;;;;;4996647;28;20026;-77
2022/06/04 13:49:31;;;;;;;2.78;2.08;;;;;;;;;;4988268;28;20109;-77
2022/06/04 13:52:01;;;;;;;3.88;2.00;;;;;;;;;;5035633;28;20033;-77
2022/06/04 13:54:34;;;;;;;2.47;1.63;;;;;;;;;;5035028;28;20033;-78
2022/06/04 13:57:07;;;;;;;3.58;2.00;;;;;;;;;;4987188;28;20037;-77
2022/06/04 13:59:37;;;;;;;4.47;2.05;;;;;;;;;;4997184;28;20038;-78
2022/06/04 14:02:04;;;;;;;3.17;2.08;;;;;;;;;;4996211;28;20036;-78
2022/06/04 14:07:14;;;;;;;1.95;1.73;;;;;;;;;;5012488;28;20045;-78
2022/06/04 14:09:49;;;;;;;2.38;2.08;;;;;;;;;;5012222;28;20046;-79
2022/06/04 14:12:16;;;;;;;2.95;2.13;;;;;;;;;;5012653;28;20041;-77
2022/06/04 14:15:19;;;;;;;2.72;2.00;;;;;;;;;;5012109;28;20037;-77
2022/06/04 14:17:51;;;;;;;2.45;1.90;;;;;;;;;;5028568;28;20053;-78
2022/06/04 14:20:28;;;;;;;;;;;;;;;;;;5029337;28;20033;-77
2022/06/04 14:23:05;;;;;;;4.80;2.13;;;;;;;;;;4995866;28;20446;-77
2022/06/04 14:25:37;;;;;;;3.97;2.13;;;;;;;;;;5028161;28;20042;-78
2022/06/04 14:28:21;;;;;;;3.20;2.22;;;;;;;;;;5012130;28;20560;-77
2022/06/04 14:30:57;;;;;;;3.95;2.47;;;;;;;;;;5012253;28;20038;-79
2022/06/04 14:33:23;;;;;;;3.17;2.15;;;;;;;;;;4995981;28;20029;-78
2022/06/04 14:35:59;;;;;;;2.65;1.90;;;;;;;;;;4995748;28;20044;-78
2022/06/04 14:38:25;;;;;;;3.63;2.10;;;;;;;;;;4979490;28;20042;-78
2022/06/04 14:41:01;;;;;;;5.25;2.20;;;;;;;;;;4996009;28;20508;-78
2022/06/04 14:43:42;;;;;;;2.83;2.25;;;;;;;;;;5011512;28;20500;-78
2022/06/04 14:46:39;;;;;;;5.65;2.28;;;;;;;;;;5012567;28;20500;-78
2022/06/04 14:49:15;;;;;;;3.28;2.22;;;;;;;;;;5012131;28;20049;-78
2022/06/04 14:52:10;;;;;;;3.97;2.28;;;;;;;;;;5031224;28;20064;-78
2022/06/04 14:54:36;;;;;;;5.13;2.97;;;;;;;;;;5015254;28;20041;-78
2022/06/04 14:57:15;;;;;;;4.50;3.05;;;;;;;;;;4994866;28;20030;-77
2022/06/04 14:59:54;;;;;;;3.40;2.50;;;;;;;;;;5011352;28;20128;-78
2022/06/04 15:02:22;;;;;;;2.83;2.45;;;;;;;;;;5026179;28;20038;-78
2022/06/04 15:05:03;;;;;;;3.45;2.10;;;;;;;;;;5031376;28;20514;-78
2022/06/04 15:07:45;;;;;;;2.83;2.22;;;;;;;;;;5014412;28;20041;-78
2022/06/04 15:10:31;;;;;;;3.65;2.45;;;;;;;;;;5031010;28;20072;-78
2022/06/04 15:13:16;;;;;;;4.45;2.30;;;;;;;;;;5031306;28;20051;-78
2022/06/04 15:16:05;;;;;;;4.32;2.50;;;;;;;;;;5030832;28;20037;-78
2022/06/04 15:18:51;;;;;;;2.55;2.15;;;;;;;;;;5031091;28;20128;-78
2022/06/04 15:21:45;;;;;;;3.70;2.97;;;;;;;;;;5030673;28;20117;-78
2022/06/04 15:24:35;;;;;;;2.70;2.30;;;;;;;;;;5031960;28;20033;-78
2022/06/04 15:27:13;;;;;;;3.25;2.50;;;;;;;;;;5019546;28;20117;-78
2022/06/04 15:35:50;;;;;;;4.20;2.38;;;;;;;;;;4999593;28;20514;-78
2022/06/04 15:38:25;;;;;;;2.50;2.10;;;;;;;;;;4994483;28;20077;-78
2022/06/04 15:40:58;;;;;;;2.83;2.15;;;;;;;;;;4995154;28;20064;-78
2022/06/04 15:43:28;;;;;;;2.95;2.20;;;;;;;;;;5012430;28;20084;-79